Time;durP1;ratioP1;P1;durP2;ratioP2;P2;SDS_P1;SDS_P2;PMS_P1;PMS_P2;Temp;Humidity;BMP_temperature;BMP_pressure;BME280_temperature;BME280_humidity;BME280_pressure;Samples;Min_cycle;Max_cycle;Signal;HPM_P1;HPM_P2
2021/11/11 00:01:05;;;;;;;21.33;14.50;;;1.20;99.90;;;;;;5115089;28;20048;-73
2021/11/11 00:03:32;;;;;;;24.13;16.23;;;1.20;99.90;;;;;;5113956;28;20055;-73
2021/11/11 00:05:59;;;;;;;25.40;15.27;;;1.20;99.90;;;;;;5114305;28;20047;-73
2021/11/11 00:08:26;;;;;;;23.73;14.20;;;1.40;99.90;;;;;;5114624;28;20108;-73
2021/11/11 00:10:53;;;;;;;24.80;15.63;;;1.40;99.90;;;;;;5114442;28;20048;-72
2021/11/11 00:13:20;;;;;;;25.83;14.37;;;1.30;99.90;;;;;;5114032;28;20100;-72
2021/11/11 00:15:48;;;;;;;21.40;13.97;;;1.30;99.90;;;;;;5114421;28;20059;-72
2021/11/11 00:18:16;;;;;;;20.83;13.70;;;1.20;99.90;;;;;;5114263;28;20043;-71
2021/11/11 00:20:43;;;;;;;20.63;13.57;;;1.30;99.90;;;;;;5113985;28;20453;-72
2021/11/11 00:23:10;;;;;;;26.73;15.27;;;1.30;99.90;;;;;;5113729;27;20465;-72
2021/11/11 00:25:37;;;;;;;20.87;14.37;;;1.30;99.90;;;;;;5114296;28;20085;-73
2021/11/11 00:28:05;;;;;;;25.27;14.07;;;1.30;99.90;;;;;;5113991;28;20583;-73
2021/11/11 00:30:32;;;;;;;20.67;13.67;;;1.30;99.90;;;;;;5114034;28;20050;-73
2021/11/11 00:32:59;;;;;;;19.80;14.07;;;1.20;99.90;;;;;;5113930;28;20050;-73
2021/11/11 00:35:28;;;;;;;23.27;13.03;;;1.10;99.90;;;;;;5113409;28;20116;-72
2021/11/11 00:37:57;;;;;;;20.47;12.60;;;1.10;99.90;;;;;;5114012;28;20101;-72
2021/11/11 00:40:25;;;;;;;20.73;14.83;;;1.20;99.90;;;;;;5113749;28;20047;-72
2021/11/11 00:42:51;;;;;;;18.63;12.93;;;1.20;99.90;;;;;;5113788;28;20048;-73
2021/11/11 00:45:18;;;;;;;26.97;14.00;;;1.30;99.90;;;;;;5113243;28;20047;-73
2021/11/11 00:47:48;;;;;;;20.70;14.27;;;1.30;99.90;;;;;;5113385;28;20043;-72
2021/11/11 00:50:16;;;;;;;26.77;14.63;;;1.30;99.90;;;;;;5113693;28;20048;-72
2021/11/11 00:52:44;;;;;;;19.50;15.00;;;1.30;99.90;;;;;;5113553;28;20048;-72
2021/11/11 00:55:11;;;;;;;25.07;16.70;;;1.30;99.90;;;;;;5113050;28;20047;-72
2021/11/11 00:57:38;;;;;;;23.87;13.73;;;1.20;99.90;;;;;;5113589;28;20547;-74
2021/11/11 01:00:06;;;;;;;20.23;14.50;;;1.30;99.90;;;;;;5113231;28;20047;-72
2021/11/11 01:02:34;;;;;;;18.83;14.33;;;1.30;99.90;;;;;;5112835;28;20583;-73
2021/11/11 01:05:01;;;;;;;18.50;12.97;;;1.20;99.90;;;;;;5112978;28;20388;-73
2021/11/11 01:07:27;;;;;;;21.47;14.13;;;1.20;99.90;;;;;;5113341;28;20044;-73
2021/11/11 01:09:55;;;;;;;19.80;13.53;;;1.10;99.90;;;;;;5113108;27;20093;-73
2021/11/11 01:12:22;;;;;;;18.90;12.37;;;1.10;99.90;;;;;;5113172;28;20080;-72
2021/11/11 01:14:49;;;;;;;24.83;14.30;;;1.00;99.90;;;;;;5112578;28;20051;-72
2021/11/11 01:17:15;;;;;;;20.57;13.33;;;0.90;99.90;;;;;;5113251;28;20048;-72
2021/11/11 01:19:42;;;;;;;19.97;13.27;;;0.90;99.90;;;;;;5113140;28;20040;-72
2021/11/11 01:22:09;;;;;;;16.93;13.60;;;0.90;99.90;;;;;;5112791;28;20483;-73
2021/11/11 01:24:35;;;;;;;22.60;15.13;;;0.90;99.90;;;;;;5112576;28;20043;-72
2021/11/11 01:27:04;;;;;;;15.10;11.90;;;0.80;99.90;;;;;;5113010;28;20362;-72
2021/11/11 01:29:30;;;;;;;18.17;12.17;;;0.80;99.90;;;;;;5112716;28;20119;-72
2021/11/11 01:31:57;;;;;;;19.30;12.93;;;0.70;99.90;;;;;;5112999;28;20089;-73
2021/11/11 01:34:27;;;;;;;25.00;13.13;;;0.70;99.90;;;;;;5112304;28;20093;-72
2021/11/11 01:36:54;;;;;;;17.97;13.53;;;0.60;99.90;;;;;;5112889;28;20075;-72
2021/11/11 01:39:21;;;;;;;19.80;12.43;;;0.60;99.90;;;;;;5112678;28;20043;-73
2021/11/11 01:41:48;;;;;;;20.63;11.67;;;0.50;99.90;;;;;;5112509;28;20051;-73
2021/11/11 01:44:18;;;;;;;17.03;11.93;;;0.50;99.90;;;;;;5112170;28;20183;-73
2021/11/11 01:46:45;;;;;;;20.17;14.83;;;0.50;99.90;;;;;;5112772;28;20040;-73
2021/11/11 01:49:13;;;;;;;18.37;12.03;;;0.40;99.90;;;;;;5112637;28;20121;-73
2021/11/11 01:51:40;;;;;;;22.90;13.00;;;0.30;99.90;;;;;;5112472;28;20044;-73
2021/11/11 01:54:07;;;;;;;16.60;12.37;;;0.30;99.90;;;;;;5112118;28;20044;-73
2021/11/11 01:56:35;;;;;;;21.07;14.23;;;0.20;99.90;;;;;;5112250;28;20380;-72
2021/11/11 01:59:01;;;;;;;18.33;12.50;;;0.10;99.90;;;;;;5112606;28;20449;-72
2021/11/11 02:01:30;;;;;;;28.03;13.77;;;0.10;99.90;;;;;;5112471;28;20096;-73
2021/11/11 02:03:56;;;;;;;18.73;12.97;;;0.10;99.90;;;;;;5112174;28;20069;-72
2021/11/11 02:06:23;;;;;;;19.13;14.10;;;0.10;99.90;;;;;;5112410;28;20044;-72
2021/11/11 02:08:50;;;;;;;20.57;13.83;;;0.00;99.90;;;;;;5112226;28;20100;-72
2021/11/11 02:11:17;;;;;;;19.27;13.57;;;0.00;99.90;;;;;;5112420;28;20687;-73
2021/11/11 02:13:44;;;;;;;18.77;15.47;;;0.00;99.90;;;;;;5111855;28;20121;-73
2021/11/11 02:16:11;;;;;;;21.87;13.33;;;0.00;99.90;;;;;;5112229;28;20047;-72
2021/11/11 02:18:39;;;;;;;21.37;13.33;;;0.00;99.90;;;;;;5111110;28;20558;-73
2021/11/11 02:21:07;;;;;;;22.87;12.77;;;0.00;99.90;;;;;;5111423;28;20487;-72
2021/11/11 02:23:35;;;;;;;21.67;11.80;;;0.00;99.90;;;;;;5111495;28;20488;-72
2021/11/11 02:26:04;;;;;;;19.33;13.60;;;0.10;99.90;;;;;;5112217;28;20108;-73
2021/11/11 02:28:30;;;;;;;21.40;13.77;;;0.10;99.90;;;;;;5112252;28;20044;-73
2021/11/11 02:30:57;;;;;;;23.20;15.03;;;0.10;99.90;;;;;;5111966;28;20043;-72
2021/11/11 02:33:25;;;;;;;17.83;12.80;;;0.10;99.90;;;;;;5111369;28;20484;-73
2021/11/11 02:35:53;;;;;;;15.00;10.90;;;0.00;99.90;;;;;;5111951;28;20432;-73
2021/11/11 02:38:22;;;;;;;19.57;13.13;;;-0.10;99.90;;;;;;5111964;28;20036;-73
2021/11/11 02:40:49;;;;;;;22.00;13.70;;;-0.10;99.90;;;;;;5112030;28;20101;-73
2021/11/11 02:43:17;;;;;;;18.07;12.40;;;-0.20;99.90;;;;;;5111567;28;20047;-73
2021/11/11 02:45:46;;;;;;;17.60;11.67;;;-0.20;99.90;;;;;;5111798;28;20549;-73
2021/11/11 02:48:15;;;;;;;21.80;13.00;;;-0.30;99.90;;;;;;5111800;28;20040;-72
2021/11/11 02:50:42;;;;;;;19.07;13.10;;;-0.30;99.90;;;;;;5111672;28;20085;-73
2021/11/11 02:53:09;;;;;;;31.53;13.40;;;-0.30;99.90;;;;;;5111495;28;20060;-73
2021/11/11 02:55:37;;;;;;;23.73;15.87;;;-0.30;99.90;;;;;;5111867;28;20082;-73
2021/11/11 02:58:05;;;;;;;23.87;13.27;;;-0.30;99.90;;;;;;5111978;28;20069;-73
2021/11/11 03:00:34;;;;;;;23.40;15.43;;;-0.20;99.90;;;;;;5111794;28;20097;-73
2021/11/11 03:03:01;;;;;;;18.03;12.80;;;-0.10;99.90;;;;;;5111597;28;20047;-72
2021/11/11 03:05:30;;;;;;;15.17;12.07;;;0.00;99.90;;;;;;5111133;28;20516;-73
2021/11/11 03:07:57;;;;;;;19.40;14.13;;;0.20;99.90;;;;;;5111760;28;20097;-73
2021/11/11 03:10:26;;;;;;;17.60;12.30;;;0.30;99.90;;;;;;5111758;28;20453;-72
2021/11/11 03:12:55;;;;;;;22.67;15.93;;;0.30;99.90;;;;;;5111615;28;20081;-73
2021/11/11 03:15:24;;;;;;;19.93;13.30;;;0.40;99.90;;;;;;5111220;28;20521;-73
2021/11/11 03:17:52;;;;;;;25.50;14.97;;;0.40;99.90;;;;;;5111471;28;20156;-73
2021/11/11 03:20:19;;;;;;;24.47;16.33;;;0.40;99.90;;;;;;5111668;28;20073;-72
2021/11/11 03:22:46;;;;;;;19.77;13.37;;;0.40;99.90;;;;;;5111546;28;20047;-73
2021/11/11 03:25:19;;;;;;;18.47;12.37;;;0.40;99.90;;;;;;5111127;28;20039;-72
2021/11/11 03:27:46;;;;;;;21.57;13.50;;;0.40;99.90;;;;;;5111639;28;20142;-73
2021/11/11 03:30:16;;;;;;;24.57;14.37;;;0.20;99.90;;;;;;5111313;28;20048;-72
2021/11/11 03:32:43;;;;;;;19.53;13.10;;;0.20;99.90;;;;;;5113543;28;20076;-72
2021/11/11 03:35:10;;;;;;;19.40;11.70;;;0.10;99.90;;;;;;5114439;28;20487;-73
2021/11/11 03:37:37;;;;;;;25.93;13.67;;;0.10;99.90;;;;;;5115117;28;20396;-71
2021/11/11 03:40:09;;;;;;;21.13;14.73;;;0.20;99.90;;;;;;5115067;28;20092;-73
2021/11/11 03:42:36;;;;;;;15.80;12.52;;;0.20;99.90;;;;;;5115254;28;20047;-73
2021/11/11 03:45:03;;;;;;;18.50;11.90;;;0.10;99.90;;;;;;5114297;28;20047;-72
2021/11/11 03:47:31;;;;;;;19.47;12.80;;;0.10;99.90;;;;;;5114982;28;20097;-72
2021/11/11 03:49:58;;;;;;;24.00;12.63;;;0.00;99.90;;;;;;5114885;28;20048;-73
2021/11/11 03:52:25;;;;;;;19.40;12.67;;;0.00;99.90;;;;;;5114987;28;20043;-73
2021/11/11 03:54:51;;;;;;;16.43;11.50;;;0.10;99.90;;;;;;5114282;28;20100;-73
2021/11/11 03:57:18;;;;;;;23.10;14.00;;;0.10;99.90;;;;;;5114813;28;20047;-73
2021/11/11 03:59:45;;;;;;;27.23;17.13;;;0.10;99.90;;;;;;5114833;28;20055;-73
2021/11/11 04:02:13;;;;;;;19.40;13.87;;;0.10;99.90;;;;;;5114923;28;20048;-73
2021/11/11 04:04:41;;;;;;;19.63;14.97;;;0.00;99.90;;;;;;5114181;28;20044;-72
2021/11/11 04:07:08;;;;;;;19.03;12.67;;;-0.10;99.90;;;;;;5114569;28;20047;-73
2021/11/11 04:09:35;;;;;;;16.70;14.67;;;-0.10;99.90;;;;;;5114687;28;20051;-72
2021/11/11 04:12:02;;;;;;;15.90;12.43;;;-0.10;99.90;;;;;;5114408;28;20040;-73
2021/11/11 04:14:29;;;;;;;20.33;11.97;;;-0.10;99.90;;;;;;5114254;28;20047;-72
2021/11/11 04:16:55;;;;;;;25.77;13.40;;;-0.10;99.90;;;;;;5114592;28;20071;-73
2021/11/11 04:19:22;;;;;;;20.07;14.90;;;-0.20;99.90;;;;;;5114033;27;20043;-73
2021/11/11 04:21:50;;;;;;;23.53;14.63;;;-0.30;99.90;;;;;;5114167;27;20100;-74
2021/11/11 04:24:16;;;;;;;23.30;11.20;;;-0.30;99.90;;;;;;5113605;28;20116;-73
2021/11/11 04:26:52;;;;;;;16.00;10.77;;;-0.30;99.90;;;;;;5114307;28;20077;-72
2021/11/11 04:29:21;;;;;;;24.10;13.47;;;-0.30;99.90;;;;;;5114204;28;20051;-73
2021/11/11 04:31:52;;;;;;;18.83;12.10;;;-0.20;99.90;;;;;;5114137;28;20047;-73
2021/11/11 04:34:20;;;;;;;17.23;11.80;;;-0.20;99.90;;;;;;5113438;28;20500;-73
2021/11/11 04:37:20;;;;;;;21.43;13.70;;;-0.20;99.90;;;;;;5114028;28;20043;-72
2021/11/11 04:42:54;;;;;;;18.33;13.10;;;-0.30;99.90;;;;;;5114231;28;20047;-71
2021/11/11 04:45:46;;;;;;;19.93;15.37;;;-0.30;99.90;;;;;;5112743;28;20079;-73
2021/11/11 05:01:55;;;;;;;38.30;16.70;;;-0.20;99.90;;;;;;5113194;28;19923;-70
2021/11/11 05:04:22;;;;;;;21.60;16.33;;;-0.30;99.90;;;;;;5112867;28;20079;-69
2021/11/11 05:06:49;;;;;;;35.37;16.10;;;-0.30;99.90;;;;;;5113364;28;20100;-71
2021/11/11 05:09:16;;;;;;;21.87;15.63;;;-0.30;99.90;;;;;;5113109;28;20139;-71
2021/11/11 05:11:44;;;;;;;21.90;13.83;;;-0.30;99.90;;;;;;5113278;28;20040;-70
2021/11/11 05:14:10;;;;;;;29.37;14.93;;;-0.30;99.90;;;;;;5112696;28;20104;-70
2021/11/11 05:16:37;;;;;;;27.27;14.90;;;-0.20;99.90;;;;;;5112939;28;20043;-69
2021/11/11 05:19:04;;;;;;;31.20;15.17;;;-0.10;99.90;;;;;;5112929;28;20484;-74
2021/11/11 05:21:31;;;;;;;26.63;15.47;;;-0.10;99.90;;;;;;5113111;28;20048;-72
2021/11/11 05:23:57;;;;;;;20.80;13.10;;;-0.20;99.90;;;;;;5112488;28;20043;-70
2021/11/11 05:26:24;;;;;;;30.67;16.37;;;-0.20;99.90;;;;;;5112923;28;20050;-70
2021/11/11 05:28:52;;;;;;;26.13;13.27;;;-0.20;99.90;;;;;;5112845;28;20167;-69
2021/11/11 05:31:19;;;;;;;21.50;14.77;;;-0.30;99.90;;;;;;5112972;28;20074;-72
2021/11/11 05:33:46;;;;;;;28.60;17.20;;;-0.10;99.90;;;;;;5112417;28;20043;-72
2021/11/11 05:36:12;;;;;;;29.57;15.23;;;0.00;99.90;;;;;;5112853;28;20117;-70
2021/11/11 05:38:39;;;;;;;23.47;12.33;;;0.10;99.90;;;;;;5112950;28;20419;-70
2021/11/11 05:41:06;;;;;;;20.63;14.97;;;0.00;99.90;;;;;;5112635;28;20070;-71
2021/11/11 05:43:33;;;;;;;19.83;14.53;;;-0.10;99.90;;;;;;5111872;28;20445;-72
2021/11/11 05:46:01;;;;;;;28.47;12.77;;;-0.10;99.90;;;;;;5112681;28;20055;-70
2021/11/11 05:48:35;;;;;;;21.37;13.57;;;-0.10;99.90;;;;;;5112197;28;20047;-71
2021/11/11 05:51:02;;;;;;;21.83;14.70;;;-0.10;99.90;;;;;;5112555;28;20078;-74
2021/11/11 05:53:30;;;;;;;25.13;16.13;;;0.00;99.90;;;;;;5112117;28;20095;-70
2021/11/11 05:55:56;;;;;;;32.50;14.27;;;0.00;99.90;;;;;;5111549;28;20043;-70
2021/11/11 05:58:23;;;;;;;22.60;14.73;;;0.00;99.90;;;;;;5112508;28;20085;-70
2021/11/11 06:00:50;;;;;;;22.20;14.43;;;0.00;99.90;;;;;;5112253;28;20060;-72
2021/11/11 06:03:18;;;;;;;20.30;14.37;;;0.00;99.90;;;;;;5111910;28;20043;-70
2021/11/11 06:05:45;;;;;;;28.53;14.80;;;0.10;99.90;;;;;;5112175;28;20052;-70
2021/11/11 06:08:12;;;;;;;50.87;17.10;;;0.00;99.90;;;;;;5112310;28;20116;-71
2021/11/11 06:10:38;;;;;;;19.80;11.37;;;0.00;99.90;;;;;;5112661;28;20419;-72
2021/11/11 06:13:05;;;;;;;21.43;14.83;;;0.00;99.90;;;;;;5112342;28;20096;-72
2021/11/11 06:15:31;;;;;;;15.77;12.87;;;0.00;99.90;;;;;;5111914;28;20048;-72
2021/11/11 06:17:59;;;;;;;22.13;14.37;;;0.00;99.90;;;;;;5113436;28;20077;-72
2021/11/11 06:20:31;;;;;;;37.17;23.57;;;0.00;99.90;;;;;;5112103;28;20043;-72
2021/11/11 06:23:01;;;;;;;52.20;21.90;;;0.00;99.90;;;;;;5112305;28;20050;-75
2021/11/11 06:25:28;;;;;;;55.83;25.10;;;-0.10;99.90;;;;;;5111634;28;20570;-76
2021/11/11 06:27:54;;;;;;;36.60;20.43;;;-0.20;99.90;;;;;;5112268;28;20048;-73
2021/11/11 06:30:21;;;;;;;32.00;20.47;;;-0.10;99.90;;;;;;5112328;28;20044;-73
2021/11/11 06:32:48;;;;;;;32.50;17.60;;;-0.10;99.90;;;;;;5112232;28;20116;-74
2021/11/11 06:35:14;;;;;;;33.10;16.47;;;0.10;99.90;;;;;;5111661;28;20088;-74
2021/11/11 06:37:42;;;;;;;34.37;14.80;;;0.30;99.90;;;;;;5112132;28;20044;-74
2021/11/11 06:40:10;;;;;;;31.77;15.73;;;0.20;99.90;;;;;;5111842;28;20612;-73
2021/11/11 06:42:37;;;;;;;18.70;12.20;;;0.10;99.90;;;;;;5111840;28;20483;-71
2021/11/11 06:45:10;;;;;;;25.27;15.93;;;0.10;99.90;;;;;;5111412;28;20051;-73
2021/11/11 06:47:36;;;;;;;23.20;14.67;;;0.20;99.90;;;;;;5111910;28;20058;-72
2021/11/11 06:50:04;;;;;;;54.97;18.97;;;0.20;99.90;;;;;;5112222;28;20044;-72
2021/11/11 06:52:30;;;;;;;47.67;16.73;;;0.10;99.90;;;;;;5111642;28;20048;-72
2021/11/11 06:54:58;;;;;;;27.33;15.50;;;0.20;99.90;;;;;;5111420;28;20043;-74
2021/11/11 06:57:25;;;;;;;37.00;15.07;;;0.40;99.90;;;;;;5112065;28;20048;-72
2021/11/11 06:59:52;;;;;;;28.50;13.83;;;0.30;99.90;;;;;;5111602;28;20495;-72
2021/11/11 07:02:18;;;;;;;31.97;15.40;;;0.20;99.90;;;;;;5111928;28;20043;-75
2021/11/11 07:04:45;;;;;;;25.33;14.63;;;0.20;99.90;;;;;;5111190;28;20048;-75
2021/11/11 07:07:12;;;;;;;19.10;14.83;;;0.30;99.90;;;;;;5113068;28;20051;-74
2021/11/11 07:09:39;;;;;;;52.63;16.90;;;0.30;99.90;;;;;;5115687;28;20052;-73
2021/11/11 07:12:08;;;;;;;25.63;16.07;;;0.30;99.90;;;;;;5116107;28;20472;-77
2021/11/11 07:14:36;;;;;;;23.17;15.27;;;0.20;99.90;;;;;;5117905;28;20039;-77
2021/11/11 07:17:03;;;;;;;30.47;15.00;;;0.30;99.90;;;;;;5115785;28;20043;-74
2021/11/11 07:19:31;;;;;;;35.67;16.97;;;0.30;99.90;;;;;;5115277;28;20051;-74
2021/11/11 07:21:58;;;;;;;40.63;18.03;;;0.40;99.90;;;;;;5115230;28;20060;-76
2021/11/11 07:24:25;;;;;;;40.73;17.23;;;0.40;99.90;;;;;;5114672;28;20480;-74
2021/11/11 07:26:52;;;;;;;34.33;16.93;;;0.40;99.90;;;;;;5115465;28;20054;-76
2021/11/11 07:29:20;;;;;;;40.50;17.17;;;0.50;99.90;;;;;;5115370;28;20051;-74
2021/11/11 07:31:51;;;;;;;31.33;16.30;;;0.80;99.90;;;;;;5115194;28;20050;-74
2021/11/11 07:34:18;;;;;;;32.45;18.48;;;1.00;99.90;;;;;;5115338;28;20048;-74
2021/11/11 07:36:45;;;;;;;31.67;18.30;;;1.20;99.90;;;;;;5115275;28;20518;-74
2021/11/11 07:39:13;;;;;;;26.97;16.40;;;1.40;99.90;;;;;;5115271;28;20146;-74
2021/11/11 07:41:42;;;;;;;24.13;16.13;;;1.40;99.90;;;;;;5115094;28;20048;-73
2021/11/11 07:44:09;;;;;;;29.37;17.23;;;1.50;99.90;;;;;;5114249;28;20054;-72
2021/11/11 07:46:40;;;;;;;27.73;17.30;;;1.60;99.90;;;;;;5114722;28;20086;-71
2021/11/11 07:49:08;;;;;;;23.53;14.90;;;1.60;99.90;;;;;;5114894;28;20044;-72
2021/11/11 07:51:35;;;;;;;20.97;14.83;;;1.70;99.90;;;;;;5114730;28;20044;-72
2021/11/11 07:54:02;;;;;;;25.67;16.80;;;1.90;99.90;;;;;;5114212;28;20043;-71
2021/11/11 07:56:29;;;;;;;29.90;13.37;;;2.10;99.90;;;;;;5114697;28;20075;-74
2021/11/11 07:58:57;;;;;;;21.13;14.47;;;2.20;99.90;;;;;;5114424;28;20044;-75
2021/11/11 08:01:24;;;;;;;25.20;14.47;;;2.30;99.90;;;;;;5114915;28;20543;-72
2021/11/11 08:03:52;;;;;;;23.03;15.10;;;2.30;99.90;;;;;;5114204;28;20131;-76
2021/11/11 08:06:21;;;;;;;27.63;15.77;;;2.50;99.90;;;;;;5115345;28;20055;-76
2021/11/11 08:08:48;;;;;;;27.77;18.30;;;2.60;99.90;;;;;;5114053;28;20486;-72
2021/11/11 08:11:15;;;;;;;23.13;14.93;;;2.80;99.90;;;;;;5115627;28;20451;-71
2021/11/11 08:13:43;;;;;;;23.53;15.90;;;3.10;99.90;;;;;;5113996;28;20075;-73
2021/11/11 08:16:09;;;;;;;20.87;13.57;;;3.30;99.90;;;;;;5114251;28;20048;-73
2021/11/11 08:18:36;;;;;;;21.47;15.93;;;3.70;99.90;;;;;;5113736;27;20097;-74
2021/11/11 08:21:05;;;;;;;27.53;15.20;;;4.00;99.90;;;;;;5114432;28;20125;-75
2021/11/11 08:23:32;;;;;;;23.47;13.63;;;4.50;99.90;;;;;;5117040;28;20384;-75
2021/11/11 08:26:03;;;;;;;22.20;13.57;;;4.90;99.90;;;;;;5114320;28;20056;-76
2021/11/11 08:28:30;;;;;;;20.63;13.75;;;5.10;99.90;;;;;;5114085;28;20488;-72
2021/11/11 08:30:57;;;;;;;22.53;13.87;;;5.00;99.90;;;;;;5114271;28;20100;-71
2021/11/11 08:33:23;;;;;;;19.37;12.03;;;5.50;99.90;;;;;;5113499;28;20445;-72
2021/11/11 08:35:50;;;;;;;22.27;13.73;;;5.80;99.90;;;;;;5113999;28;20069;-72
2021/11/11 08:38:19;;;;;;;16.67;12.43;;;6.40;99.90;;;;;;5113608;28;20044;-72
2021/11/11 08:40:46;;;;;;;24.75;12.88;;;6.90;99.90;;;;;;5113692;28;20047;-71
2021/11/11 08:43:13;;;;;;;16.13;12.05;;;7.40;99.90;;;;;;5113266;28;20048;-72
2021/11/11 08:45:40;;;;;;;18.30;12.43;;;8.00;99.90;;;;;;5113655;28;20109;-70
2021/11/11 08:48:07;;;;;;;17.40;11.75;;;8.90;99.90;;;;;;5113417;28;20442;-70
2021/11/11 08:50:36;;;;;;;17.48;12.00;;;9.80;99.90;;;;;;5113515;28;20065;-69
2021/11/11 08:53:04;;;;;;;18.25;12.77;;;9.50;99.90;;;;;;5113523;28;20050;-72
2021/11/11 08:55:33;;;;;;;17.88;12.95;;;10.00;99.90;;;;;;5113187;28;20050;-70
2021/11/11 08:58:00;;;;;;;23.50;13.05;;;10.00;99.90;;;;;;5113535;28;20039;-71
2021/11/11 09:00:31;;;;;;;19.35;13.27;;;9.60;99.90;;;;;;5113376;28;20040;-71
2021/11/11 09:02:59;;;;;;;19.35;12.50;;;10.10;99.90;;;;;;5113410;28;20410;-71
2021/11/11 09:05:30;;;;;;;23.40;14.25;;;9.90;99.90;;;;;;5112842;28;20071;-73
2021/11/11 09:07:57;;;;;;;17.05;12.45;;;11.00;99.90;;;;;;5113246;28;20472;-71
2021/11/11 09:10:23;;;;;;;19.77;13.13;;;11.00;99.90;;;;;;5113313;28;20067;-73
2021/11/11 09:12:53;;;;;;;24.58;12.57;;;12.00;99.90;;;;;;5113195;28;20104;-74
2021/11/11 09:15:24;;;;;;;21.67;13.02;;;12.50;99.90;;;;;;5112954;28;20044;-73
2021/11/11 09:17:52;;;;;;;20.92;15.13;;;12.30;99.90;;;;;;5113237;28;20485;-74
2021/11/11 09:20:19;;;;;;;21.35;14.00;;;12.00;99.90;;;;;;5113053;28;20062;-73
2021/11/11 09:22:46;;;;;;;22.92;12.32;;;12.00;99.90;;;;;;5113175;28;20430;-74
2021/11/11 09:25:14;;;;;;;23.38;14.65;;;12.10;99.90;;;;;;5112476;28;20537;-74
2021/11/11 09:27:43;;;;;;;19.45;13.57;;;11.80;99.90;;;;;;5112914;28;20047;-74
2021/11/11 09:30:15;;;;;;;22.33;13.52;;;12.10;99.90;;;;;;5112755;28;20040;-72
2021/11/11 09:32:42;;;;;;;;;;;12.00;99.90;;;;;;5113195;28;20412;-70
2021/11/11 09:35:09;;;;;;;23.27;13.38;;;11.80;99.90;;;;;;5112604;28;19923;-71
2021/11/11 09:37:37;;;;;;;21.05;13.57;;;11.80;99.90;;;;;;5113096;27;20043;-76
2021/11/11 09:40:05;;;;;;;22.70;13.93;;;12.20;99.90;;;;;;5113100;28;20449;-72
2021/11/11 09:42:33;;;;;;;18.23;13.10;;;12.90;99.90;;;;;;5113291;28;20056;-72
2021/11/11 09:45:01;;;;;;;18.77;12.18;;;13.90;99.90;;;;;;5111920;28;20056;-71
2021/11/11 09:47:29;;;;;;;20.63;14.63;;;14.20;99.90;;;;;;5112471;28;20074;-70
2021/11/11 09:49:56;;;;;;;20.95;13.73;;;15.20;99.90;;;;;;5112645;28;20040;-72
2021/11/11 09:52:25;;;;;;;19.73;13.82;;;15.90;98.40;;;;;;5112678;28;20082;-72
2021/11/11 10:00:24;;;;;;;16.10;11.57;;;15.90;93.80;;;;;;5112234;28;20097;-71
2021/11/11 10:02:52;;;;;;;20.10;13.63;;;15.20;97.80;;;;;;5112564;28;20052;-73
2021/11/11 10:05:20;;;;;;;21.27;13.30;;;14.60;99.40;;;;;;5111685;28;20051;-70
2021/11/11 10:07:46;;;;;;;20.20;13.13;;;15.30;97.60;;;;;;5112166;28;20060;-69
2021/11/11 10:10:30;;;;;;;16.70;11.70;;;15.80;97.00;;;;;;5112020;28;20560;-72
2021/11/11 10:13:13;;;;;;;19.23;12.50;;;16.80;95.40;;;;;;5112242;28;20054;-70
2021/11/11 10:15:57;;;;;;;22.35;13.10;;;16.80;92.20;;;;;;5112101;28;20108;-72
2021/11/11 10:18:41;;;;;;;20.02;12.30;;;17.50;92.20;;;;;;5112110;28;20044;-73
2021/11/11 10:21:26;;;;;;;16.30;10.77;;;18.10;89.50;;;;;;5112205;28;20088;-73
2021/11/11 10:23:53;;;;;;;18.23;11.85;;;19.20;84.60;;;;;;5111685;28;20176;-70
2021/11/11 10:26:26;;;;;;;16.10;12.05;;;20.00;78.10;;;;;;5111949;28;20096;-72
2021/11/11 10:28:53;;;;;;;19.23;13.45;;;20.20;77.10;;;;;;5111942;28;20048;-71
2021/11/11 10:31:21;;;;;;;22.38;13.77;;;21.00;72.70;;;;;;5112196;28;20100;-71
2021/11/11 10:34:10;;;;;;;17.88;12.75;;;19.40;72.30;;;;;;5121207;28;20450;-72
2021/11/11 10:36:39;;;;;;;18.02;14.10;;;18.80;77.30;;;;;;5122629;28;20047;-72
2021/11/11 10:39:12;;;;;;;18.08;14.05;;;18.50;77.10;;;;;;5112629;28;20040;-71
2021/11/11 10:41:39;;;;;;;19.23;12.95;;;18.30;80.00;;;;;;5111888;28;20116;-73
2021/11/11 10:44:25;;;;;;;20.48;13.50;;;18.90;78.70;;;;;;5115911;28;20048;-72
2021/11/11 10:46:54;;;;;;;19.45;14.07;;;19.50;73.80;;;;;;5116223;28;20044;-71
2021/11/11 10:49:28;;;;;;;23.17;13.70;;;18.90;75.80;;;;;;5117832;28;20047;-72
2021/11/11 10:51:56;;;;;;;20.58;14.40;;;18.90;77.40;;;;;;5115981;28;20048;-71
2021/11/11 10:54:23;;;;;;;22.77;14.23;;;20.10;74.80;;;;;;5115228;28;20519;-71
2021/11/11 10:56:50;;;;;;;20.00;12.55;;;20.40;73.70;;;;;;5115978;28;20044;-73
2021/11/11 10:59:20;;;;;;;19.30;13.00;;;19.60;73.20;;;;;;5115903;28;20051;-73
2021/11/11 11:02:04;;;;;;;21.88;13.27;;;19.20;74.20;;;;;;5115712;28;20046;-73
2021/11/11 11:04:35;;;;;;;18.63;12.82;;;20.30;73.90;;;;;;5115276;28;20121;-74
2021/11/11 11:07:18;;;;;;;24.00;13.77;;;19.00;74.00;;;;;;5115791;28;20048;-74
2021/11/11 11:09:45;;;;;;;17.33;12.43;;;18.00;77.40;;;;;;5115542;28;20073;-73
2021/11/11 11:12:29;;;;;;;21.98;15.07;;;17.70;78.20;;;;;;5115719;28;20043;-74
2021/11/11 11:14:55;;;;;;;23.80;12.55;;;17.40;81.10;;;;;;5115192;28;20063;-72
2021/11/11 11:17:22;;;;;;;21.10;13.48;;;17.90;81.60;;;;;;5115626;28;20043;-74
2021/11/11 11:19:51;;;;;;;22.67;14.60;;;17.50;80.30;;;;;;5115445;28;20069;-71
2021/11/11 11:22:24;;;;;;;17.20;12.27;;;17.70;80.90;;;;;;5115388;28;20540;-72
2021/11/11 11:25:02;;;;;;;18.17;13.77;;;18.70;78.40;;;;;;5114778;28;20436;-73
2021/11/11 11:27:33;;;;;;;17.30;12.10;;;18.10;76.00;;;;;;5115076;28;20047;-73
2021/11/11 11:30:07;;;;;;;21.85;13.35;;;16.80;82.00;;;;;;5115933;28;20050;-72
2021/11/11 11:32:35;;;;;;;16.10;11.40;;;17.10;83.90;;;;;;5116482;28;20109;-73
2021/11/11 11:35:05;;;;;;;20.60;12.20;;;16.70;82.50;;;;;;5115264;28;20401;-73
2021/11/11 11:37:35;;;;;;;18.83;12.57;;;15.90;84.10;;;;;;5115129;28;20055;-72
2021/11/11 11:40:05;;;;;;;16.80;11.80;;;15.10;90.50;;;;;;5114760;28;20047;-72
2021/11/11 11:42:36;;;;;;;17.85;10.73;;;15.00;92.90;;;;;;5115380;28;20446;-73
2021/11/11 11:45:08;;;;;;;15.95;10.98;;;16.00;92.20;;;;;;5114627;28;20044;-73
2021/11/11 11:47:39;;;;;;;17.38;10.30;;;15.90;89.10;;;;;;5114868;28;20058;-73
2021/11/11 11:50:11;;;;;;;16.80;10.63;;;16.60;90.10;;;;;;5114742;28;20047;-72
2021/11/11 11:52:40;;;;;;;19.42;12.10;;;17.10;84.40;;;;;;5115051;28;20084;-70
2021/11/11 11:55:11;;;;;;;15.02;10.10;;;16.80;84.40;;;;;;5114425;28;20047;-72
2021/11/11 11:57:51;;;;;;;21.38;12.20;;;16.20;86.40;;;;;;5114816;28;20051;-72
2021/11/11 12:00:36;;;;;;;15.65;10.27;;;15.30;88.80;;;;;;5115309;28;20400;-72
2021/11/11 12:08:51;;;;;;;16.30;9.98;;;14.30;98.20;;;;;;5105241;28;20381;-73
2021/11/11 12:14:22;;;;;;;15.93;10.23;;;14.30;97.80;;;;;;5051303;28;20501;-73
2021/11/11 12:39:45;;;;;;;19.13;11.02;;;14.60;96.50;;;;;;5113864;28;20058;-76
2021/11/11 12:42:15;;;;;;;16.67;9.38;;;15.10;97.10;;;;;;5113888;28;20491;-76
2021/11/11 12:45:01;;;;;;;18.88;10.98;;;15.10;95.60;;;;;;5113425;28;20048;-73
2021/11/11 12:47:34;;;;;;;16.50;10.43;;;14.50;97.30;;;;;;5102820;28;20055;-74
2021/11/11 12:50:29;;;;;;;15.75;11.23;;;14.20;99.00;;;;;;5113712;28;20093;-73
2021/11/11 12:53:24;;;;;;;19.90;11.73;;;14.20;99.60;;;;;;5113829;28;20058;-73
2021/11/11 12:56:25;;;;;;;16.17;10.93;;;15.20;96.90;;;;;;5113730;28;20056;-75
2021/11/11 12:59:00;;;;;;;28.17;16.27;;;15.00;96.80;;;;;;5111223;28;20040;-74
2021/11/11 13:01:33;;;;;;;18.10;11.23;;;15.50;96.10;;;;;;5114034;28;20044;-72
2021/11/11 13:04:14;;;;;;;19.92;12.55;;;15.70;94.90;;;;;;5113000;28;20450;-73
2021/11/11 13:06:43;;;;;;;25.30;14.40;;;16.40;93.70;;;;;;5112946;28;20474;-71
2021/11/11 13:09:22;;;;;;;15.73;10.70;;;16.60;92.00;;;;;;5113111;28;20040;-74
2021/11/11 13:11:51;;;;;;;16.48;11.35;;;16.30;91.50;;;;;;5113700;28;20044;-74
2021/11/11 13:14:21;;;;;;;15.57;11.13;;;15.00;94.00;;;;;;5112942;28;20048;-71
2021/11/11 13:17:11;;;;;;;17.67;11.40;;;15.00;95.70;;;;;;5113201;28;20040;-73
2021/11/11 13:19:41;;;;;;;14.52;10.80;;;14.80;96.40;;;;;;5113016;28;20541;-72
2021/11/11 13:22:14;;;;;;;14.25;10.07;;;14.70;97.10;;;;;;5113476;28;20051;-76
2021/11/11 13:24:57;;;;;;;18.08;11.38;;;14.50;99.30;;;;;;5113241;28;20047;-70
2021/11/11 14:01:16;;;;;;;17.42;10.60;;;10.60;99.90;;;;;;5112326;28;20111;-75
2021/11/11 16:01:44;;;;;;;10.43;5.97;;;9.00;99.90;;;;;;5115173;28;20441;-74
2021/11/11 16:20:48;;;;;;;12.60;8.88;;;9.00;99.90;;;;;;5114210;28;20054;-71
2021/11/11 16:23:21;;;;;;;6.95;4.78;;;9.00;99.90;;;;;;5113692;28;20060;-72
2021/11/11 16:26:04;;;;;;;9.90;4.60;;;9.00;99.90;;;;;;5114259;28;20049;-73